PWSweather.com
Personal Weather Stations
Station Observations
AC5CV
Greenleaf Peninsula, Waco, TX 76710

Greenleaf PeninsulaWaco, TX 76710

Lat: 31.565, Lon: -97.198

Elevation: 570

Station Type: Ambient WS2080

http://johnchamber.dyndns.info/

High Low Average
Temperature 101.0°F38.3°C 77.0°F25.0°C 87.5°F30.8°C
Dew Point 75.1°F23.9°C 64.1°F17.8°C 71.7°F22.1°C
Winds 9.2 mph 14.8 kmh 0.7 mph 1.1 kmh 4.0 mph SSE6.4 kmh SSE
Wind Gusts 19.9 mph32.0 kmh 2.5 mph4.0 kmh 9.0 mph14.5 kmh
Humidity 93% 32% 63%
Pressure 29.31 in992.6 mb 29.12 in986.1 mb -
Precipitation 0.00 in0.0 mm - -
Hour Temp Dew Point Humidity Winds Wind Gusts Pressure Precip Precip Rate Daily Precip Total
12:00 AM 80.4°F26.9°C 73.3°F22.9°C 79% 4.1 mph ESE6.6 kmh ESE 7.4 mph11.9 kmh 29.11 in985.8 mb 0.00 in0.0 mm 0.00 in0.0 mm 0.00 in0.0 mm
12:05 AM 80.4°F26.9°C 73.3°F22.9°C 79% 3.8 mph SE6.1 kmh SE 7.4 mph11.9 kmh 29.11 in985.8 mb 0.00 in0.0 mm 0.00 in0.0 mm 0.00 in0.0 mm
12:10 AM 79.7°F26.5°C 72.8°F22.7°C 80% 3.9 mph ESE6.3 kmh ESE 7.4 mph11.9 kmh 29.11 in985.8 mb 0.00 in0.0 mm 0.00 in0.0 mm 0.00 in0.0 mm
12:15 AM 79.6°F26.4°C 72.9°F22.7°C 80% 5.8 mph ESE9.3 kmh ESE 12.3 mph19.8 kmh 29.11 in985.8 mb 0.00 in0.0 mm 0.00 in0.0 mm 0.00 in0.0 mm
12:20 AM 79.5°F26.4°C 72.9°F22.7°C 80% 2.2 mph ESE3.5 kmh ESE 4.9 mph7.9 kmh 29.11 in985.8 mb 0.00 in0.0 mm 0.00 in0.0 mm 0.00 in0.0 mm
12:25 AM 79.5°F26.4°C 73.1°F22.8°C 81% 3.6 mph ESE5.8 kmh ESE 9.8 mph15.8 kmh 29.12 in986.1 mb 0.00 in0.0 mm 0.00 in0.0 mm 0.00 in0.0 mm
12:30 AM 79.3°F26.3°C 72.9°F22.7°C 81% 3.2 mph SE5.1 kmh SE 4.9 mph7.9 kmh 29.12 in986.1 mb 0.00 in0.0 mm 0.00 in0.0 mm 0.00 in0.0 mm
12:35 AM 79.2°F26.2°C 72.9°F22.7°C 81% 4.2 mph SE6.8 kmh SE 7.4 mph11.9 kmh 29.12 in986.1 mb 0.00 in0.0 mm 0.00 in0.0 mm 0.00 in0.0 mm
12:40 AM 79.2°F26.2°C 72.9°F22.7°C 81% 3.6 mph SE5.8 kmh SE 7.4 mph11.9 kmh 29.12 in986.1 mb 0.00 in0.0 mm 0.00 in0.0 mm 0.00 in0.0 mm
12:45 AM 79.2°F26.2°C 72.9°F22.7°C 81% 4.7 mph SE7.6 kmh SE 9.8 mph15.8 kmh 29.12 in986.1 mb 0.00 in0.0 mm 0.00 in0.0 mm 0.00 in0.0 mm
12:50 AM 79.2°F26.2°C 72.9°F22.7°C 81% 3.3 mph SE5.3 kmh SE 4.9 mph7.9 kmh 29.12 in986.1 mb 0.00 in0.0 mm 0.00 in0.0 mm 0.00 in0.0 mm
12:55 AM 79.1°F26.2°C 72.8°F22.7°C 81% 3.1 mph SE5.0 kmh SE 4.9 mph7.9 kmh 29.12 in986.1 mb 0.00 in0.0 mm 0.00 in0.0 mm 0.00 in0.0 mm
01:00 AM 79.0°F26.1°C 72.7°F22.6°C 81% 3.5 mph SE5.6 kmh SE 7.4 mph11.9 kmh 29.12 in986.1 mb 0.00 in0.0 mm 0.00 in0.0 mm 0.00 in0.0 mm
01:05 AM 79.0°F26.1°C 72.7°F22.6°C 81% 3.7 mph SE6.0 kmh SE 7.4 mph11.9 kmh 29.12 in986.1 mb 0.00 in0.0 mm 0.00 in0.0 mm 0.00 in0.0 mm
01:10 AM 79.0°F26.1°C 72.7°F22.6°C 81% 2.5 mph SE4.0 kmh SE 4.9 mph7.9 kmh 29.13 in986.5 mb 0.00 in0.0 mm 0.00 in0.0 mm 0.00 in0.0 mm
01:15 AM 79.0°F26.1°C 72.7°F22.6°C 81% 3.4 mph SE5.5 kmh SE 7.4 mph11.9 kmh 29.13 in986.5 mb 0.00 in0.0 mm 0.00 in0.0 mm 0.00 in0.0 mm
01:20 AM 79.0°F26.1°C 73.0°F22.8°C 82% 3.4 mph SSE5.5 kmh SSE 9.8 mph15.8 kmh 29.13 in986.5 mb 0.00 in0.0 mm 0.00 in0.0 mm 0.00 in0.0 mm
01:25 AM 79.0°F26.1°C 73.0°F22.8°C 82% 1.8 mph ESE2.9 kmh ESE 4.9 mph7.9 kmh 29.13 in986.5 mb 0.00 in0.0 mm 0.00 in0.0 mm 0.00 in0.0 mm
01:30 AM 79.0°F26.1°C 73.0°F22.8°C 82% 2.9 mph SE4.7 kmh SE 7.4 mph11.9 kmh 29.13 in986.5 mb 0.00 in0.0 mm 0.00 in0.0 mm 0.00 in0.0 mm
01:35 AM 78.9°F26.1°C 73.1°F22.8°C 82% 3.5 mph SE5.6 kmh SE 7.4 mph11.9 kmh 29.13 in986.5 mb 0.00 in0.0 mm 0.00 in0.0 mm 0.00 in0.0 mm
01:40 AM 78.8°F26.0°C 73.4°F23.0°C 84% 2.8 mph ESE4.5 kmh ESE 7.4 mph11.9 kmh 29.13 in986.5 mb 0.00 in0.0 mm 0.00 in0.0 mm 0.00 in0.0 mm
01:45 AM 78.8°F26.0°C 73.5°F23.1°C 84% 3.4 mph ESE5.5 kmh ESE 7.4 mph11.9 kmh 29.13 in986.5 mb 0.00 in0.0 mm 0.00 in0.0 mm 0.00 in0.0 mm
01:50 AM 78.6°F25.9°C 73.7°F23.2°C 85% 4.5 mph SSE7.2 kmh SSE 7.4 mph11.9 kmh 29.13 in986.5 mb 0.00 in0.0 mm 0.00 in0.0 mm 0.00 in0.0 mm
01:55 AM 78.6°F25.9°C 73.7°F23.2°C 85% 3.0 mph SSE4.8 kmh SSE 7.4 mph11.9 kmh 29.12 in986.1 mb 0.00 in0.0 mm 0.00 in0.0 mm 0.00 in0.0 mm
02:00 AM 78.6°F25.9°C 73.7°F23.2°C 85% 3.4 mph SE5.5 kmh SE 4.9 mph7.9 kmh 29.13 in986.5 mb 0.00 in0.0 mm 0.00 in0.0 mm 0.00 in0.0 mm
02:05 AM 78.6°F25.9°C 73.9°F23.3°C 86% 3.4 mph SE5.5 kmh SE 7.4 mph11.9 kmh 29.13 in986.5 mb 0.00 in0.0 mm 0.00 in0.0 mm 0.00 in0.0 mm
02:10 AM 78.6°F25.9°C 74.0°F23.3°C 86% 2.9 mph SE4.7 kmh SE 4.9 mph7.9 kmh 29.13 in986.5 mb 0.00 in0.0 mm 0.00 in0.0 mm 0.00 in0.0 mm
02:15 AM 78.6°F25.9°C 74.0°F23.3°C 86% 2.9 mph S4.7 kmh S 4.9 mph7.9 kmh 29.13 in986.5 mb 0.00 in0.0 mm 0.00 in0.0 mm 0.00 in0.0 mm
02:20 AM 78.6°F25.9°C 74.0°F23.3°C 86% 5.1 mph SE8.2 kmh SE 9.8 mph15.8 kmh 29.13 in986.5 mb 0.00 in0.0 mm 0.00 in0.0 mm 0.00 in0.0 mm
02:25 AM 78.6°F25.9°C 74.4°F23.6°C 87% 3.7 mph S6.0 kmh S 7.4 mph11.9 kmh 29.13 in986.5 mb 0.00 in0.0 mm 0.00 in0.0 mm 0.00 in0.0 mm
02:30 AM 78.6°F25.9°C 74.4°F23.6°C 87% 4.7 mph SSE7.6 kmh SSE 7.4 mph11.9 kmh 29.13 in986.5 mb 0.00 in0.0 mm 0.00 in0.0 mm 0.00 in0.0 mm
02:35 AM 78.6°F25.9°C 74.4°F23.6°C 87% 3.6 mph ESE5.8 kmh ESE 7.4 mph11.9 kmh 29.13 in986.5 mb 0.00 in0.0 mm 0.00 in0.0 mm 0.00 in0.0 mm
02:40 AM 78.6°F25.9°C 74.4°F23.6°C 87% 2.9 mph SE4.7 kmh SE 7.4 mph11.9 kmh 29.13 in986.5 mb 0.00 in0.0 mm 0.00 in0.0 mm 0.00 in0.0 mm
02:45 AM 78.6°F25.9°C 74.5°F23.6°C 87% 3.4 mph SE5.5 kmh SE 9.8 mph15.8 kmh 29.13 in986.5 mb 0.00 in0.0 mm 0.00 in0.0 mm 0.00 in0.0 mm
02:50 AM 78.6°F25.9°C 74.7°F23.7°C 88% 3.9 mph SSE6.3 kmh SSE 7.4 mph11.9 kmh 29.13 in986.5 mb 0.00 in0.0 mm 0.00 in0.0 mm 0.00 in0.0 mm
02:55 AM 78.6°F25.9°C 74.7°F23.7°C 88% 4.0 mph S6.4 kmh S 9.8 mph15.8 kmh 29.13 in986.5 mb 0.00 in0.0 mm 0.00 in0.0 mm 0.00 in0.0 mm
03:00 AM 78.6°F25.9°C 74.9°F23.8°C 88% 3.6 mph SSE5.8 kmh SSE 7.4 mph11.9 kmh 29.13 in986.5 mb 0.00 in0.0 mm 0.00 in0.0 mm 0.00 in0.0 mm
03:05 AM 78.6°F25.9°C 75.1°F23.9°C 89% 3.8 mph E6.1 kmh E 7.4 mph11.9 kmh 29.13 in986.5 mb 0.00 in0.0 mm 0.00 in0.0 mm 0.00 in0.0 mm
03:10 AM 77.9°F25.5°C 74.4°F23.6°C 89% 4.1 mph SE6.6 kmh SE 7.4 mph11.9 kmh 29.13 in986.5 mb 0.00 in0.0 mm 0.00 in0.0 mm 0.00 in0.0 mm
03:15 AM 77.2°F25.1°C 73.7°F23.2°C 89% 4.6 mph SE7.4 kmh SE 9.8 mph15.8 kmh 29.13 in986.5 mb 0.00 in0.0 mm 0.00 in0.0 mm 0.00 in0.0 mm
03:20 AM 77.2°F25.1°C 74.0°F23.3°C 90% 4.0 mph SE6.4 kmh SE 9.8 mph15.8 kmh 29.13 in986.5 mb 0.00 in0.0 mm 0.00 in0.0 mm 0.00 in0.0 mm
03:25 AM 77.2°F25.1°C 74.0°F23.3°C 90% 3.8 mph SE6.1 kmh SE 9.8 mph15.8 kmh 29.13 in986.5 mb 0.00 in0.0 mm 0.00 in0.0 mm 0.00 in0.0 mm
03:30 AM 77.2°F25.1°C 74.0°F23.3°C 90% 4.2 mph SSE6.8 kmh SSE 9.8 mph15.8 kmh 29.13 in986.5 mb 0.00 in0.0 mm 0.00 in0.0 mm 0.00 in0.0 mm
03:35 AM 77.2°F25.1°C 74.0°F23.3°C 90% 4.6 mph SE7.4 kmh SE 9.8 mph15.8 kmh 29.13 in986.5 mb 0.00 in0.0 mm 0.00 in0.0 mm 0.00 in0.0 mm
03:40 AM 77.2°F25.1°C 74.0°F23.3°C 90% 4.2 mph SE6.8 kmh SE 7.4 mph11.9 kmh 29.13 in986.5 mb 0.00 in0.0 mm 0.00 in0.0 mm 0.00 in0.0 mm
03:45 AM 77.2°F25.1°C 74.0°F23.3°C 90% 3.3 mph SE5.3 kmh SE 7.4 mph11.9 kmh 29.12 in986.1 mb 0.00 in0.0 mm 0.00 in0.0 mm 0.00 in0.0 mm
03:50 AM 77.2°F25.1°C 74.2°F23.4°C 90% 4.6 mph SSE7.4 kmh SSE 7.4 mph11.9 kmh 29.13 in986.5 mb 0.00 in0.0 mm 0.00 in0.0 mm 0.00 in0.0 mm
03:55 AM 77.2°F25.1°C 74.4°F23.6°C 91% 4.6 mph SE7.4 kmh SE 12.3 mph19.8 kmh 29.13 in986.5 mb 0.00 in0.0 mm 0.00 in0.0 mm 0.00 in0.0 mm
04:00 AM 77.2°F25.1°C 74.4°F23.6°C 91% 6.3 mph SE10.1 kmh SE 9.8 mph15.8 kmh 29.12 in986.1 mb 0.00 in0.0 mm 0.00 in0.0 mm 0.00 in0.0 mm
04:05 AM 77.2°F25.1°C 74.4°F23.6°C 91% 4.5 mph SSE7.2 kmh SSE 9.8 mph15.8 kmh 29.12 in986.1 mb 0.00 in0.0 mm 0.00 in0.0 mm 0.00 in0.0 mm
04:10 AM 77.2°F25.1°C 74.4°F23.6°C 91% 4.7 mph SSE7.6 kmh SSE 9.8 mph15.8 kmh 29.12 in986.1 mb 0.00 in0.0 mm 0.00 in0.0 mm 0.00 in0.0 mm
04:15 AM 77.2°F25.1°C 74.4°F23.6°C 91% 7.4 mph SSE11.9 kmh SSE 12.3 mph19.8 kmh 29.13 in986.5 mb 0.00 in0.0 mm 0.00 in0.0 mm 0.00 in0.0 mm
04:20 AM 77.2°F25.1°C 74.4°F23.6°C 91% 6.0 mph SSE9.7 kmh SSE 12.3 mph19.8 kmh 29.12 in986.1 mb 0.00 in0.0 mm 0.00 in0.0 mm 0.00 in0.0 mm
04:25 AM 77.2°F25.1°C 74.4°F23.6°C 91% 7.5 mph S12.1 kmh S 12.3 mph19.8 kmh 29.13 in986.5 mb 0.00 in0.0 mm 0.00 in0.0 mm 0.00 in0.0 mm
04:30 AM 77.2°F25.1°C 74.4°F23.6°C 91% 5.5 mph SSE8.9 kmh SSE 12.3 mph19.8 kmh 29.13 in986.5 mb 0.00 in0.0 mm 0.00 in0.0 mm 0.00 in0.0 mm
04:35 AM 77.2°F25.1°C 74.7°F23.7°C 92% 7.8 mph SE12.6 kmh SE 12.3 mph19.8 kmh 29.13 in986.5 mb 0.00 in0.0 mm 0.00 in0.0 mm 0.00 in0.0 mm
04:40 AM 77.2°F25.1°C 74.7°F23.7°C 92% 5.3 mph S8.5 kmh S 9.8 mph15.8 kmh 29.13 in986.5 mb 0.00 in0.0 mm 0.00 in0.0 mm 0.00 in0.0 mm
04:45 AM 77.2°F25.1°C 74.7°F23.7°C 92% 6.2 mph SE10.0 kmh SE 9.8 mph15.8 kmh 29.13 in986.5 mb 0.00 in0.0 mm 0.00 in0.0 mm 0.00 in0.0 mm
04:50 AM 77.2°F25.1°C 74.7°F23.7°C 92% 3.6 mph SE5.8 kmh SE 7.4 mph11.9 kmh 29.13 in986.5 mb 0.00 in0.0 mm 0.00 in0.0 mm 0.00 in0.0 mm
04:55 AM 77.2°F25.1°C 74.7°F23.7°C 92% 5.4 mph S8.7 kmh S 9.8 mph15.8 kmh 29.12 in986.1 mb 0.00 in0.0 mm 0.00 in0.0 mm 0.00 in0.0 mm
05:00 AM 77.2°F25.1°C 74.7°F23.7°C 92% 4.9 mph S7.9 kmh S 9.8 mph15.8 kmh 29.12 in986.1 mb 0.00 in0.0 mm 0.00 in0.0 mm 0.00 in0.0 mm
05:05 AM 77.2°F25.1°C 74.7°F23.7°C 92% 6.8 mph SSE10.9 kmh SSE 9.8 mph15.8 kmh 29.12 in986.1 mb 0.00 in0.0 mm 0.00 in0.0 mm 0.00 in0.0 mm
05:10 AM 77.2°F25.1°C 74.7°F23.7°C 92% 7.6 mph SSE12.2 kmh SSE 9.8 mph15.8 kmh 29.12 in986.1 mb 0.00 in0.0 mm 0.00 in0.0 mm 0.00 in0.0 mm
05:15 AM 77.2°F25.1°C 74.7°F23.7°C 92% 4.9 mph SSE7.9 kmh SSE 7.4 mph11.9 kmh 29.12 in986.1 mb 0.00 in0.0 mm 0.00 in0.0 mm 0.00 in0.0 mm
05:20 AM 77.2°F25.1°C 74.7°F23.7°C 92% 4.5 mph SSE7.2 kmh SSE 7.4 mph11.9 kmh 29.12 in986.1 mb 0.00 in0.0 mm 0.00 in0.0 mm 0.00 in0.0 mm
05:25 AM 77.2°F25.1°C 74.7°F23.7°C 92% 5.2 mph SSE8.4 kmh SSE 9.8 mph15.8 kmh 29.13 in986.5 mb 0.00 in0.0 mm 0.00 in0.0 mm 0.00 in0.0 mm
05:30 AM 77.2°F25.1°C 74.7°F23.7°C 92% 5.2 mph SE8.4 kmh SE 9.8 mph15.8 kmh 29.13 in986.5 mb 0.00 in0.0 mm 0.00 in0.0 mm 0.00 in0.0 mm
05:35 AM 77.2°F25.1°C 74.7°F23.7°C 92% 4.7 mph SE7.6 kmh SE 7.4 mph11.9 kmh 29.13 in986.5 mb 0.00 in0.0 mm 0.00 in0.0 mm 0.00 in0.0 mm
05:40 AM 77.2°F25.1°C 74.7°F23.7°C 92% 5.4 mph SSE8.7 kmh SSE 9.8 mph15.8 kmh 29.13 in986.5 mb 0.00 in0.0 mm 0.00 in0.0 mm 0.00 in0.0 mm
05:45 AM 77.0°F25.0°C 74.5°F23.6°C 92% 3.8 mph SE6.1 kmh SE 7.4 mph11.9 kmh 29.13 in986.5 mb 0.00 in0.0 mm 0.00 in0.0 mm 0.00 in0.0 mm
05:50 AM 77.0°F25.0°C 74.5°F23.6°C 92% 4.7 mph SSE7.6 kmh SSE 9.8 mph15.8 kmh 29.13 in986.5 mb 0.00 in0.0 mm 0.00 in0.0 mm 0.00 in0.0 mm
05:55 AM 77.0°F25.0°C 74.7°F23.7°C 93% 3.7 mph SE6.0 kmh SE 7.4 mph11.9 kmh 29.14 in986.8 mb 0.00 in0.0 mm 0.00 in0.0 mm 0.00 in0.0 mm
06:00 AM 77.0°F25.0°C 74.8°F23.8°C 93% 4.4 mph SSE7.1 kmh SSE 9.8 mph15.8 kmh 29.13 in986.5 mb 0.00 in0.0 mm 0.00 in0.0 mm 0.00 in0.0 mm
06:05 AM 77.0°F25.0°C 74.8°F23.8°C 93% 4.6 mph SSE7.4 kmh SSE 9.8 mph15.8 kmh 29.13 in986.5 mb 0.00 in0.0 mm 0.00 in0.0 mm 0.00 in0.0 mm
06:10 AM 77.0°F25.0°C 74.8°F23.8°C 93% 5.5 mph SSE8.9 kmh SSE 12.3 mph19.8 kmh 29.14 in986.8 mb 0.00 in0.0 mm 0.00 in0.0 mm 0.00 in0.0 mm
06:15 AM 77.2°F25.1°C 75.0°F23.9°C 93% 5.4 mph SSE8.7 kmh SSE 9.8 mph15.8 kmh 29.14 in986.8 mb 0.00 in0.0 mm 0.00 in0.0 mm 0.00 in0.0 mm
06:20 AM 77.2°F25.1°C 75.0°F23.9°C 93% 5.8 mph SSE9.3 kmh SSE 9.8 mph15.8 kmh 29.14 in986.8 mb 0.00 in0.0 mm 0.00 in0.0 mm 0.00 in0.0 mm
06:25 AM 77.2°F25.1°C 75.0°F23.9°C 93% 5.4 mph SSE8.7 kmh SSE 9.8 mph15.8 kmh 29.14 in986.8 mb 0.00 in0.0 mm 0.00 in0.0 mm 0.00 in0.0 mm
06:30 AM 77.2°F25.1°C 75.0°F23.9°C 93% 4.0 mph S6.4 kmh S 7.4 mph11.9 kmh 29.14 in986.8 mb 0.00 in0.0 mm 0.00 in0.0 mm 0.00 in0.0 mm
06:35 AM 77.2°F25.1°C 75.0°F23.9°C 93% 5.1 mph SSE8.2 kmh SSE 9.8 mph15.8 kmh 29.14 in986.8 mb 0.00 in0.0 mm 0.00 in0.0 mm 0.00 in0.0 mm
06:40 AM 77.2°F25.1°C 75.0°F23.9°C 93% 8.9 mph S14.3 kmh S 15.0 mph24.1 kmh 29.14 in986.8 mb 0.00 in0.0 mm 0.00 in0.0 mm 0.00 in0.0 mm
06:45 AM 77.2°F25.1°C 75.0°F23.9°C 93% 7.6 mph SSE12.2 kmh SSE 12.3 mph19.8 kmh 29.14 in986.8 mb 0.00 in0.0 mm 0.00 in0.0 mm 0.00 in0.0 mm
06:50 AM 77.2°F25.1°C 74.9°F23.8°C 92% 6.5 mph SSE10.5 kmh SSE 9.8 mph15.8 kmh 29.14 in986.8 mb 0.00 in0.0 mm 0.00 in0.0 mm 0.00 in0.0 mm
06:55 AM 77.2°F25.1°C 74.7°F23.7°C 92% 7.4 mph S11.9 kmh S 12.3 mph19.8 kmh 29.14 in986.8 mb 0.00 in0.0 mm 0.00 in0.0 mm 0.00 in0.0 mm
07:00 AM 77.2°F25.1°C 74.7°F23.7°C 92% 9.2 mph SE14.8 kmh SE 15.0 mph24.1 kmh 29.14 in986.8 mb 0.00 in0.0 mm 0.00 in0.0 mm 0.00 in0.0 mm
07:05 AM 77.2°F25.1°C 74.7°F23.7°C 92% 6.6 mph SSE10.6 kmh SSE 12.3 mph19.8 kmh 29.15 in987.1 mb 0.00 in0.0 mm 0.00 in0.0 mm 0.00 in0.0 mm
07:10 AM 77.2°F25.1°C 74.7°F23.7°C 92% 7.6 mph SSE12.2 kmh SSE 12.3 mph19.8 kmh 29.15 in987.1 mb 0.00 in0.0 mm 0.00 in0.0 mm 0.00 in0.0 mm
07:15 AM 77.2°F25.1°C 74.7°F23.7°C 92% 3.4 mph S5.5 kmh S 12.3 mph19.8 kmh 29.15 in987.1 mb 0.00 in0.0 mm 0.00 in0.0 mm 0.00 in0.0 mm
07:20 AM 77.2°F25.1°C 74.7°F23.7°C 92% 6.1 mph SSE9.8 kmh SSE 12.3 mph19.8 kmh 29.16 in987.5 mb 0.00 in0.0 mm 0.00 in0.0 mm 0.00 in0.0 mm
07:25 AM 77.2°F25.1°C 74.6°F23.7°C 92% 5.4 mph SSE8.7 kmh SSE 9.8 mph15.8 kmh 29.16 in987.5 mb 0.00 in0.0 mm 0.00 in0.0 mm 0.00 in0.0 mm
07:30 AM 77.2°F25.1°C 74.4°F23.6°C 91% 6.1 mph SE9.8 kmh SE 9.8 mph15.8 kmh 29.17 in987.8 mb 0.00 in0.0 mm 0.00 in0.0 mm 0.00 in0.0 mm
07:35 AM 77.2°F25.1°C 74.4°F23.6°C 91% 6.6 mph S10.6 kmh S 9.8 mph15.8 kmh 29.17 in987.8 mb 0.00 in0.0 mm 0.00 in0.0 mm 0.00 in0.0 mm
07:40 AM 77.2°F25.1°C 74.4°F23.6°C 91% 5.3 mph S8.5 kmh S 12.3 mph19.8 kmh 29.17 in987.8 mb 0.00 in0.0 mm 0.00 in0.0 mm 0.00 in0.0 mm
07:45 AM 77.2°F25.1°C 74.0°F23.3°C 90% 6.5 mph S10.5 kmh S 12.3 mph19.8 kmh 29.17 in987.8 mb 0.00 in0.0 mm 0.00 in0.0 mm 0.00 in0.0 mm
07:50 AM 77.4°F25.2°C 74.3°F23.5°C 90% 6.4 mph SSE10.3 kmh SSE 9.8 mph15.8 kmh 29.17 in987.8 mb 0.00 in0.0 mm 0.00 in0.0 mm 0.00 in0.0 mm
07:55 AM 78.4°F25.8°C 74.7°F23.7°C 89% 7.8 mph SSE12.6 kmh SSE 17.4 mph28.0 kmh 29.17 in987.8 mb 0.00 in0.0 mm 0.00 in0.0 mm 0.00 in0.0 mm
08:00 AM 78.6°F25.9°C 74.6°F23.7°C 88% 7.0 mph S11.3 kmh S 15.0 mph24.1 kmh 29.17 in987.8 mb 0.00 in0.0 mm 0.00 in0.0 mm 0.00 in0.0 mm
08:05 AM 78.6°F25.9°C 73.8°F23.2°C 85% 5.0 mph SSE8.0 kmh SSE 12.3 mph19.8 kmh 29.18 in988.1 mb 0.00 in0.0 mm 0.00 in0.0 mm 0.00 in0.0 mm
08:10 AM 78.6°F25.9°C 73.0°F22.8°C 83% 6.3 mph SSE10.1 kmh SSE 9.8 mph15.8 kmh 29.18 in988.1 mb 0.00 in0.0 mm 0.00 in0.0 mm 0.00 in0.0 mm
08:15 AM 79.1°F26.2°C 73.0°F22.8°C 82% 2.7 mph S4.3 kmh S 7.4 mph11.9 kmh 29.18 in988.1 mb 0.00 in0.0 mm 0.00 in0.0 mm 0.00 in0.0 mm
08:20 AM 79.3°F26.3°C 72.6°F22.6°C 80% 5.8 mph SSE9.3 kmh SSE 12.3 mph19.8 kmh 29.19 in988.5 mb 0.00 in0.0 mm 0.00 in0.0 mm 0.00 in0.0 mm
08:25 AM 79.5°F26.4°C 72.4°F22.4°C 79% 3.4 mph S5.5 kmh S 12.3 mph19.8 kmh 29.19 in988.5 mb 0.00 in0.0 mm 0.00 in0.0 mm 0.00 in0.0 mm
08:30 AM 79.8°F26.6°C 72.3°F22.4°C 78% 6.2 mph SSE10.0 kmh SSE 17.4 mph28.0 kmh 29.19 in988.5 mb 0.00 in0.0 mm 0.00 in0.0 mm 0.00 in0.0 mm
08:35 AM 80.3°F26.8°C 73.0°F22.8°C 78% 4.4 mph SSE7.1 kmh SSE 9.8 mph15.8 kmh 29.19 in988.5 mb 0.00 in0.0 mm 0.00 in0.0 mm 0.00 in0.0 mm
08:40 AM 80.6°F27.0°C 72.4°F22.4°C 76% 6.9 mph S11.1 kmh S 12.3 mph19.8 kmh 29.19 in988.5 mb 0.00 in0.0 mm 0.00 in0.0 mm 0.00 in0.0 mm
08:45 AM 80.7°F27.1°C 72.4°F22.4°C 76% 6.4 mph S10.3 kmh S 12.3 mph19.8 kmh 29.19 in988.5 mb 0.00 in0.0 mm 0.00 in0.0 mm 0.00 in0.0 mm
08:50 AM 80.8°F27.1°C 72.4°F22.4°C 76% 4.9 mph SSW7.9 kmh SSW 7.4 mph11.9 kmh 29.19 in988.5 mb 0.00 in0.0 mm 0.00 in0.0 mm 0.00 in0.0 mm
08:55 AM 81.8°F27.7°C 72.9°F22.7°C 74% 2.2 mph S3.5 kmh S 9.8 mph15.8 kmh 29.19 in988.5 mb 0.00 in0.0 mm 0.00 in0.0 mm 0.00 in0.0 mm
09:00 AM 82.4°F28.0°C 72.9°F22.7°C 73% 6.6 mph SSE10.6 kmh SSE 9.8 mph15.8 kmh 29.20 in988.8 mb 0.00 in0.0 mm 0.00 in0.0 mm 0.00 in0.0 mm
09:05 AM 82.4°F28.0°C 72.9°F22.7°C 73% 5.7 mph S9.2 kmh S 9.8 mph15.8 kmh 29.19 in988.5 mb 0.00 in0.0 mm 0.00 in0.0 mm 0.00 in0.0 mm
09:10 AM 82.4°F28.0°C 73.0°F22.8°C 73% 4.6 mph S7.4 kmh S 7.4 mph11.9 kmh 29.20 in988.8 mb 0.00 in0.0 mm 0.00 in0.0 mm 0.00 in0.0 mm
09:15 AM 83.0°F28.3°C 73.4°F23.0°C 73% 4.9 mph SE7.9 kmh SE 9.8 mph15.8 kmh 29.21 in989.2 mb 0.00 in0.0 mm 0.00 in0.0 mm 0.00 in0.0 mm
09:20 AM 83.8°F28.8°C 73.0°F22.8°C 70% 4.2 mph SW6.8 kmh SW 17.4 mph28.0 kmh 29.21 in989.2 mb 0.00 in0.0 mm 0.00 in0.0 mm 0.00 in0.0 mm
09:25 AM 83.8°F28.8°C 71.7°F22.1°C 67% 4.7 mph S7.6 kmh S 12.3 mph19.8 kmh 29.20 in988.8 mb 0.00 in0.0 mm 0.00 in0.0 mm 0.00 in0.0 mm
09:30 AM 83.8°F28.8°C 71.4°F21.9°C 66% 4.1 mph S6.6 kmh S 7.4 mph11.9 kmh 29.20 in988.8 mb 0.00 in0.0 mm 0.00 in0.0 mm 0.00 in0.0 mm
09:35 AM 84.0°F28.9°C 71.6°F22.0°C 66% 5.3 mph SSE8.5 kmh SSE 12.3 mph19.8 kmh 29.21 in989.2 mb 0.00 in0.0 mm 0.00 in0.0 mm 0.00 in0.0 mm
09:40 AM 84.2°F29.0°C 71.5°F21.9°C 66% 4.4 mph S7.1 kmh S 12.3 mph19.8 kmh 29.21 in989.2 mb 0.00 in0.0 mm 0.00 in0.0 mm 0.00 in0.0 mm
09:45 AM 84.4°F29.1°C 70.8°F21.6°C 64% 1.6 mph SSW2.6 kmh SSW 2.5 mph4.0 kmh 29.22 in989.5 mb 0.00 in0.0 mm 0.00 in0.0 mm 0.00 in0.0 mm
09:50 AM 84.8°F29.3°C 70.1°F21.2°C 62% 1.9 mph SSE3.1 kmh SSE 7.4 mph11.9 kmh 29.21 in989.2 mb 0.00 in0.0 mm 0.00 in0.0 mm 0.00 in0.0 mm
09:55 AM 85.8°F29.9°C 70.7°F21.5°C 61% 2.4 mph S3.9 kmh S 4.9 mph7.9 kmh 29.21 in989.2 mb 0.00 in0.0 mm 0.00 in0.0 mm 0.00 in0.0 mm
10:00 AM 86.7°F30.4°C 70.7°F21.5°C 59% 2.3 mph SSW3.7 kmh SSW 7.4 mph11.9 kmh 29.21 in989.2 mb 0.00 in0.0 mm 0.00 in0.0 mm 0.00 in0.0 mm
10:05 AM 86.9°F30.5°C 70.3°F21.3°C 58% 1.4 mph SW2.3 kmh SW 4.9 mph7.9 kmh 29.21 in989.2 mb 0.00 in0.0 mm 0.00 in0.0 mm 0.00 in0.0 mm
10:10 AM 87.1°F30.6°C 70.9°F21.6°C 59% 2.9 mph S4.7 kmh S 7.4 mph11.9 kmh 29.21 in989.2 mb 0.00 in0.0 mm 0.00 in0.0 mm 0.00 in0.0 mm
10:15 AM 87.6°F30.9°C 70.7°F21.5°C 58% 1.8 mph SSW2.9 kmh SSW 7.4 mph11.9 kmh 29.22 in989.5 mb 0.00 in0.0 mm 0.00 in0.0 mm 0.00 in0.0 mm
10:20 AM 88.0°F31.1°C 70.6°F21.4°C 57% 2.3 mph SW3.7 kmh SW 9.8 mph15.8 kmh 29.22 in989.5 mb 0.00 in0.0 mm 0.00 in0.0 mm 0.00 in0.0 mm
10:25 AM 88.1°F31.2°C 69.6°F20.9°C 54% 1.3 mph WSW2.1 kmh WSW 4.9 mph7.9 kmh 29.22 in989.5 mb 0.00 in0.0 mm 0.00 in0.0 mm 0.00 in0.0 mm
10:30 AM 88.3°F31.3°C 68.5°F20.3°C 52% 2.2 mph SW3.5 kmh SW 4.9 mph7.9 kmh 29.21 in989.2 mb 0.00 in0.0 mm 0.00 in0.0 mm 0.00 in0.0 mm
10:35 AM 88.5°F31.4°C 68.9°F20.5°C 52% 2.3 mph WSW3.7 kmh WSW 4.9 mph7.9 kmh 29.21 in989.2 mb 0.00 in0.0 mm 0.00 in0.0 mm 0.00 in0.0 mm
10:40 AM 88.7°F31.5°C 69.8°F21.0°C 54% 4.2 mph S6.8 kmh S 12.3 mph19.8 kmh 29.21 in989.2 mb 0.00 in0.0 mm 0.00 in0.0 mm 0.00 in0.0 mm
10:45 AM 88.7°F31.5°C 70.8°F21.6°C 56% 7.8 mph SSE12.6 kmh SSE 12.3 mph19.8 kmh 29.21 in989.2 mb 0.00 in0.0 mm 0.00 in0.0 mm 0.00 in0.0 mm
10:50 AM 88.7°F31.5°C 70.4°F21.3°C 55% 5.3 mph S8.5 kmh S 15.0 mph24.1 kmh 29.21 in989.2 mb 0.00 in0.0 mm 0.00 in0.0 mm 0.00 in0.0 mm
10:55 AM 88.5°F31.4°C 70.2°F21.2°C 55% 5.3 mph SSW8.5 kmh SSW 19.9 mph32.0 kmh 29.21 in989.2 mb 0.00 in0.0 mm 0.00 in0.0 mm 0.00 in0.0 mm
11:00 AM 88.4°F31.3°C 69.7°F20.9°C 54% 3.6 mph SW5.8 kmh SW 7.4 mph11.9 kmh 29.21 in989.2 mb 0.00 in0.0 mm 0.00 in0.0 mm 0.00 in0.0 mm
11:05 AM 88.5°F31.4°C 69.2°F20.7°C 53% 1.3 mph S2.1 kmh S 4.9 mph7.9 kmh 29.21 in989.2 mb 0.00 in0.0 mm 0.00 in0.0 mm 0.00 in0.0 mm
11:10 AM 88.6°F31.4°C 69.0°F20.6°C 52% 2.6 mph S4.2 kmh S 7.4 mph11.9 kmh 29.20 in988.8 mb 0.00 in0.0 mm 0.00 in0.0 mm 0.00 in0.0 mm
11:15 AM 88.8°F31.6°C 69.6°F20.9°C 53% 6.8 mph S10.9 kmh S 12.3 mph19.8 kmh 29.21 in989.2 mb 0.00 in0.0 mm 0.00 in0.0 mm 0.00 in0.0 mm
11:20 AM 89.2°F31.8°C 71.1°F21.7°C 55% 4.8 mph S7.7 kmh S 9.8 mph15.8 kmh 29.21 in989.2 mb 0.00 in0.0 mm 0.00 in0.0 mm 0.00 in0.0 mm
11:25 AM 89.3°F31.8°C 69.7°F20.9°C 53% 4.1 mph SSE6.6 kmh SSE 7.4 mph11.9 kmh 29.22 in989.5 mb 0.00 in0.0 mm 0.00 in0.0 mm 0.00 in0.0 mm
11:30 AM 89.5°F31.9°C 70.0°F21.1°C 53% 0.9 mph SSW1.4 kmh SSW 2.5 mph4.0 kmh 29.22 in989.5 mb 0.00 in0.0 mm 0.00 in0.0 mm 0.00 in0.0 mm
11:35 AM 89.7°F32.1°C 69.3°F20.7°C 51% 3.5 mph SSW5.6 kmh SSW 7.4 mph11.9 kmh 29.22 in989.5 mb 0.00 in0.0 mm 0.00 in0.0 mm 0.00 in0.0 mm
11:40 AM 91.4°F33.0°C 71.3°F21.8°C 52% 1.5 mph SW2.4 kmh SW 4.9 mph7.9 kmh 29.21 in989.2 mb 0.00 in0.0 mm 0.00 in0.0 mm 0.00 in0.0 mm
11:45 AM 91.5°F33.1°C 71.2°F21.8°C 52% 1.9 mph SW3.1 kmh SW 4.9 mph7.9 kmh 29.21 in989.2 mb 0.00 in0.0 mm 0.00 in0.0 mm 0.00 in0.0 mm
11:50 AM 91.8°F33.2°C 70.0°F21.1°C 49% 3.1 mph S5.0 kmh S 7.4 mph11.9 kmh 29.21 in989.2 mb 0.00 in0.0 mm 0.00 in0.0 mm 0.00 in0.0 mm
11:55 AM 92.0°F33.3°C 70.8°F21.6°C 50% 4.5 mph S7.2 kmh S 7.4 mph11.9 kmh 29.21 in989.2 mb 0.00 in0.0 mm 0.00 in0.0 mm 0.00 in0.0 mm
12:00 PM 92.2°F33.4°C 71.8°F22.1°C 52% 1.1 mph WSW1.8 kmh WSW 2.5 mph4.0 kmh 29.21 in989.2 mb 0.00 in0.0 mm 0.00 in0.0 mm 0.00 in0.0 mm
12:05 PM 92.3°F33.5°C 70.5°F21.4°C 49% 2.1 mph S3.4 kmh S 7.4 mph11.9 kmh 29.21 in989.2 mb 0.00 in0.0 mm 0.00 in0.0 mm 0.00 in0.0 mm
12:10 PM 92.4°F33.6°C 70.6°F21.4°C 49% 3.7 mph S6.0 kmh S 7.4 mph11.9 kmh 29.21 in989.2 mb 0.00 in0.0 mm 0.00 in0.0 mm 0.00 in0.0 mm
12:15 PM 92.5°F33.6°C 70.6°F21.4°C 49% 0.8 mph SSW1.3 kmh SSW 2.5 mph4.0 kmh 29.21 in989.2 mb 0.00 in0.0 mm 0.00 in0.0 mm 0.00 in0.0 mm
12:20 PM 93.9°F34.4°C 71.8°F22.1°C 49% 4.1 mph S6.6 kmh S 12.3 mph19.8 kmh 29.20 in988.8 mb 0.00 in0.0 mm 0.00 in0.0 mm 0.00 in0.0 mm
12:25 PM 93.9°F34.4°C 71.6°F22.0°C 49% 3.5 mph S5.6 kmh S 7.4 mph11.9 kmh 29.21 in989.2 mb 0.00 in0.0 mm 0.00 in0.0 mm 0.00 in0.0 mm
12:30 PM 93.7°F34.3°C 70.8°F21.6°C 48% 5.8 mph S9.3 kmh S 12.3 mph19.8 kmh 29.21 in989.2 mb 0.00 in0.0 mm 0.00 in0.0 mm 0.00 in0.0 mm
12:35 PM 93.6°F34.2°C 71.0°F21.7°C 48% 0.9 mph S1.4 kmh S 4.9 mph7.9 kmh 29.21 in989.2 mb 0.00 in0.0 mm 0.00 in0.0 mm 0.00 in0.0 mm
12:40 PM 93.9°F34.4°C 70.1°F21.2°C 46% 4.3 mph S6.9 kmh S 15.0 mph24.1 kmh 29.21 in989.2 mb 0.00 in0.0 mm 0.00 in0.0 mm 0.00 in0.0 mm
12:45 PM 93.9°F34.4°C 69.9°F21.1°C 46% 2.5 mph SW4.0 kmh SW 7.4 mph11.9 kmh 29.21 in989.2 mb 0.00 in0.0 mm 0.00 in0.0 mm 0.00 in0.0 mm
12:50 PM 94.0°F34.4°C 69.8°F21.0°C 46% 1.2 mph WSW1.9 kmh WSW 2.5 mph4.0 kmh 29.21 in989.2 mb 0.00 in0.0 mm 0.00 in0.0 mm 0.00 in0.0 mm
12:55 PM 94.1°F34.5°C 68.5°F20.3°C 44% 0.7 mph SSW1.1 kmh SSW 2.5 mph4.0 kmh 29.21 in989.2 mb 0.00 in0.0 mm 0.00 in0.0 mm 0.00 in0.0 mm
01:00 PM 94.6°F34.8°C 68.3°F20.2°C 43% 0.8 mph SE1.3 kmh SE 2.5 mph4.0 kmh 29.21 in989.2 mb 0.00 in0.0 mm 0.00 in0.0 mm 0.00 in0.0 mm
01:05 PM 94.9°F34.9°C 69.2°F20.7°C 44% 3.3 mph SSW5.3 kmh SSW 7.4 mph11.9 kmh 29.21 in989.2 mb 0.00 in0.0 mm 0.00 in0.0 mm 0.00 in0.0 mm
01:10 PM 95.0°F35.0°C 69.4°F20.8°C 44% 1.7 mph SW2.7 kmh SW 4.9 mph7.9 kmh 29.21 in989.2 mb 0.00 in0.0 mm 0.00 in0.0 mm 0.00 in0.0 mm
01:15 PM 95.3°F35.2°C 69.1°F20.6°C 43% 1.5 mph SSW2.4 kmh SSW 4.9 mph7.9 kmh 29.21 in989.2 mb 0.00 in0.0 mm 0.00 in0.0 mm 0.00 in0.0 mm
01:20 PM 95.9°F35.5°C 69.1°F20.6°C 42% 1.6 mph S2.6 kmh S 7.4 mph11.9 kmh 29.21 in989.2 mb 0.00 in0.0 mm 0.00 in0.0 mm 0.00 in0.0 mm
01:25 PM 96.0°F35.6°C 68.2°F20.1°C 41% 4.4 mph SSE7.1 kmh SSE 9.8 mph15.8 kmh 29.21 in989.2 mb 0.00 in0.0 mm 0.00 in0.0 mm 0.00 in0.0 mm
01:30 PM 96.1°F35.6°C 69.2°F20.7°C 42% 3.8 mph SSE6.1 kmh SSE 7.4 mph11.9 kmh 29.21 in989.2 mb 0.00 in0.0 mm 0.00 in0.0 mm 0.00 in0.0 mm
01:35 PM 96.0°F35.6°C 69.6°F20.9°C 43% 3.5 mph SSW5.6 kmh SSW 7.4 mph11.9 kmh 29.21 in989.2 mb 0.00 in0.0 mm 0.00 in0.0 mm 0.00 in0.0 mm
01:40 PM 95.7°F35.4°C 68.8°F20.4°C 42% 1.4 mph S2.3 kmh S 4.9 mph7.9 kmh 29.21 in989.2 mb 0.00 in0.0 mm 0.00 in0.0 mm 0.00 in0.0 mm
01:45 PM 95.7°F35.4°C 68.5°F20.3°C 42% 2.0 mph S3.2 kmh S 9.8 mph15.8 kmh 29.21 in989.2 mb 0.00 in0.0 mm 0.00 in0.0 mm 0.00 in0.0 mm
01:50 PM 95.8°F35.4°C 68.4°F20.2°C 41% 2.3 mph SSE3.7 kmh SSE 9.8 mph15.8 kmh 29.21 in989.2 mb 0.00 in0.0 mm 0.00 in0.0 mm 0.00 in0.0 mm
01:55 PM 95.9°F35.5°C 69.1°F20.6°C 42% 5.4 mph S8.7 kmh S 7.4 mph11.9 kmh 29.21 in989.2 mb 0.00 in0.0 mm 0.00 in0.0 mm 0.00 in0.0 mm
02:00 PM 96.4°F35.8°C 69.2°F20.7°C 42% 4.0 mph S6.4 kmh S 9.8 mph15.8 kmh 29.21 in989.2 mb 0.00 in0.0 mm 0.00 in0.0 mm 0.00 in0.0 mm
02:05 PM 96.3°F35.7°C 69.6°F20.9°C 42% 2.8 mph S4.5 kmh S 4.9 mph7.9 kmh 29.21 in989.2 mb 0.00 in0.0 mm 0.00 in0.0 mm 0.00 in0.0 mm
02:10 PM 96.4°F35.8°C 68.2°F20.1°C 40% 3.0 mph SSE4.8 kmh SSE 9.8 mph15.8 kmh 29.21 in989.2 mb 0.00 in0.0 mm 0.00 in0.0 mm 0.00 in0.0 mm
02:15 PM 96.6°F35.9°C 68.7°F20.4°C 41% 2.8 mph S4.5 kmh S 4.9 mph7.9 kmh 29.20 in988.8 mb 0.00 in0.0 mm 0.00 in0.0 mm 0.00 in0.0 mm
02:20 PM 97.3°F36.3°C 69.0°F20.6°C 40% 4.6 mph SSE7.4 kmh SSE 9.8 mph15.8 kmh 29.20 in988.8 mb 0.00 in0.0 mm 0.00 in0.0 mm 0.00 in0.0 mm
02:25 PM 97.3°F36.3°C 69.8°F21.0°C 41% 5.3 mph S8.5 kmh S 9.8 mph15.8 kmh 29.20 in988.8 mb 0.00 in0.0 mm 0.00 in0.0 mm 0.00 in0.0 mm
02:30 PM 97.3°F36.3°C 70.4°F21.3°C 42% 3.0 mph SE4.8 kmh SE 7.4 mph11.9 kmh 29.20 in988.8 mb 0.00 in0.0 mm 0.00 in0.0 mm 0.00 in0.0 mm
02:35 PM 97.2°F36.2°C 68.9°F20.5°C 40% 5.2 mph S8.4 kmh S 9.8 mph15.8 kmh 29.20 in988.8 mb 0.00 in0.0 mm 0.00 in0.0 mm 0.00 in0.0 mm
02:40 PM 96.9°F36.1°C 67.8°F19.9°C 39% 1.3 mph SSE2.1 kmh SSE 4.9 mph7.9 kmh 29.20 in988.8 mb 0.00 in0.0 mm 0.00 in0.0 mm 0.00 in0.0 mm
02:45 PM 96.9°F36.1°C 67.4°F19.7°C 38% 1.1 mph SSE1.8 kmh SSE 4.9 mph7.9 kmh 29.20 in988.8 mb 0.00 in0.0 mm 0.00 in0.0 mm 0.00 in0.0 mm
02:50 PM 97.2°F36.2°C 66.9°F19.4°C 37% 2.2 mph SSW3.5 kmh SSW 7.4 mph11.9 kmh 29.20 in988.8 mb 0.00 in0.0 mm 0.00 in0.0 mm 0.00 in0.0 mm
02:55 PM 97.4°F36.3°C 67.5°F19.7°C 38% 3.0 mph S4.8 kmh S 7.4 mph11.9 kmh 29.20 in988.8 mb 0.00 in0.0 mm 0.00 in0.0 mm 0.00 in0.0 mm
03:00 PM 97.6°F36.4°C 69.1°F20.6°C 40% 3.0 mph SSE4.8 kmh SSE 7.4 mph11.9 kmh 29.20 in988.8 mb 0.00 in0.0 mm 0.00 in0.0 mm 0.00 in0.0 mm
03:05 PM 97.6°F36.4°C 69.5°F20.8°C 40% 4.5 mph S7.2 kmh S 9.8 mph15.8 kmh 29.20 in988.8 mb 0.00 in0.0 mm 0.00 in0.0 mm 0.00 in0.0 mm
03:10 PM 97.7°F36.5°C 69.1°F20.6°C 40% 6.0 mph ESE9.7 kmh ESE 9.8 mph15.8 kmh 29.20 in988.8 mb 0.00 in0.0 mm 0.00 in0.0 mm 0.00 in0.0 mm
03:15 PM 97.7°F36.5°C 69.2°F20.7°C 40% 2.7 mph SE4.3 kmh SE 9.8 mph15.8 kmh 29.20 in988.8 mb 0.00 in0.0 mm 0.00 in0.0 mm 0.00 in0.0 mm
03:20 PM 98.1°F36.7°C 68.8°F20.4°C 39% 4.5 mph S7.2 kmh S 9.8 mph15.8 kmh 29.19 in988.5 mb 0.00 in0.0 mm 0.00 in0.0 mm 0.00 in0.0 mm
03:25 PM 98.4°F36.9°C 69.2°F20.7°C 39% 4.1 mph S6.6 kmh S 9.8 mph15.8 kmh 29.20 in988.8 mb 0.00 in0.0 mm 0.00 in0.0 mm 0.00 in0.0 mm
03:30 PM 98.4°F36.9°C 68.4°F20.2°C 38% 1.5 mph SE2.4 kmh SE 4.9 mph7.9 kmh 29.19 in988.5 mb 0.00 in0.0 mm 0.00 in0.0 mm 0.00 in0.0 mm
03:35 PM 98.4°F36.9°C 68.2°F20.1°C 38% 2.7 mph S4.3 kmh S 7.4 mph11.9 kmh 29.19 in988.5 mb 0.00 in0.0 mm 0.00 in0.0 mm 0.00 in0.0 mm
03:40 PM 98.6°F37.0°C 67.2°F19.6°C 36% 1.4 mph S2.3 kmh S 4.9 mph7.9 kmh 29.19 in988.5 mb 0.00 in0.0 mm 0.00 in0.0 mm 0.00 in0.0 mm
03:45 PM 99.1°F37.3°C 67.3°F19.6°C 36% 1.1 mph S1.8 kmh S 4.9 mph7.9 kmh 29.20 in988.8 mb 0.00 in0.0 mm 0.00 in0.0 mm 0.00 in0.0 mm
03:50 PM 99.3°F37.4°C 66.7°F19.3°C 35% 4.0 mph S6.4 kmh S 7.4 mph11.9 kmh 29.19 in988.5 mb 0.00 in0.0 mm 0.00 in0.0 mm 0.00 in0.0 mm
03:55 PM 99.3°F37.4°C 67.5°F19.7°C 36% 3.5 mph SE5.6 kmh SE 7.4 mph11.9 kmh 29.19 in988.5 mb 0.00 in0.0 mm 0.00 in0.0 mm 0.00 in0.0 mm
04:00 PM 98.8°F37.1°C 67.8°F19.9°C 37% 3.1 mph ESE5.0 kmh ESE 7.4 mph11.9 kmh 29.19 in988.5 mb 0.00 in0.0 mm 0.00 in0.0 mm 0.00 in0.0 mm
04:05 PM 98.6°F37.0°C 66.6°F19.2°C 36% 1.5 mph SE2.4 kmh SE 4.9 mph7.9 kmh 29.19 in988.5 mb 0.00 in0.0 mm 0.00 in0.0 mm 0.00 in0.0 mm
04:10 PM 98.7°F37.1°C 65.6°F18.7°C 34% 2.8 mph SSE4.5 kmh SSE 7.4 mph11.9 kmh 29.20 in988.8 mb 0.00 in0.0 mm 0.00 in0.0 mm 0.00 in0.0 mm
04:15 PM 99.0°F37.2°C 65.0°F18.3°C 33% 2.4 mph SE3.9 kmh SE 7.4 mph11.9 kmh 29.19 in988.5 mb 0.00 in0.0 mm 0.00 in0.0 mm 0.00 in0.0 mm
04:20 PM 99.3°F37.4°C 65.6°F18.7°C 34% 3.7 mph SE6.0 kmh SE 9.8 mph15.8 kmh 29.19 in988.5 mb 0.00 in0.0 mm 0.00 in0.0 mm 0.00 in0.0 mm
04:25 PM 99.7°F37.6°C 65.4°F18.6°C 33% 5.2 mph SE8.4 kmh SE 9.8 mph15.8 kmh 29.19 in988.5 mb 0.00 in0.0 mm 0.00 in0.0 mm 0.00 in0.0 mm
04:30 PM 99.7°F37.6°C 64.5°F18.1°C 32% 3.2 mph SE5.1 kmh SE 7.4 mph11.9 kmh 29.19 in988.5 mb 0.00 in0.0 mm 0.00 in0.0 mm 0.00 in0.0 mm
04:35 PM 99.5°F37.5°C 64.8°F18.2°C 32% 1.3 mph ESE2.1 kmh ESE 4.9 mph7.9 kmh 29.18 in988.1 mb 0.00 in0.0 mm 0.00 in0.0 mm 0.00 in0.0 mm
04:40 PM 99.7°F37.6°C 64.1°F17.8°C 32% 0.7 mph ESE1.1 kmh ESE 2.5 mph4.0 kmh 29.18 in988.1 mb 0.00 in0.0 mm 0.00 in0.0 mm 0.00 in0.0 mm
04:45 PM 100.0°F37.8°C 65.8°F18.8°C 33% 2.3 mph SSE3.7 kmh SSE 9.8 mph15.8 kmh 29.19 in988.5 mb 0.00 in0.0 mm 0.00 in0.0 mm 0.00 in0.0 mm
04:50 PM 100.4°F38.0°C 66.0°F18.9°C 33% 1.5 mph S2.4 kmh S 4.9 mph7.9 kmh 29.18 in988.1 mb 0.00 in0.0 mm 0.00 in0.0 mm 0.00 in0.0 mm
04:55 PM 100.6°F38.1°C 68.2°F20.1°C 35% 4.8 mph SE7.7 kmh SE 7.4 mph11.9 kmh 29.18 in988.1 mb 0.00 in0.0 mm 0.00 in0.0 mm 0.00 in0.0 mm
05:00 PM 100.3°F37.9°C 68.1°F20.1°C 36% 2.7 mph ESE4.3 kmh ESE 4.9 mph7.9 kmh 29.18 in988.1 mb 0.00 in0.0 mm 0.00 in0.0 mm 0.00 in0.0 mm
05:05 PM 99.5°F37.5°C 67.6°F19.8°C 36% 3.1 mph E5.0 kmh E 7.4 mph11.9 kmh 29.18 in988.1 mb 0.00 in0.0 mm 0.00 in0.0 mm 0.00 in0.0 mm
05:10 PM 99.5°F37.5°C 67.3°F19.6°C 36% 1.4 mph SE2.3 kmh SE 4.9 mph7.9 kmh 29.18 in988.1 mb 0.00 in0.0 mm 0.00 in0.0 mm 0.00 in0.0 mm
05:15 PM 99.5°F37.5°C 66.9°F19.4°C 35% 1.9 mph E3.1 kmh E 4.9 mph7.9 kmh 29.18 in988.1 mb 0.00 in0.0 mm 0.00 in0.0 mm 0.00 in0.0 mm
05:20 PM 99.4°F37.4°C 66.7°F19.3°C 35% 4.1 mph SE6.6 kmh SE 7.4 mph11.9 kmh 29.18 in988.1 mb 0.00 in0.0 mm 0.00 in0.0 mm 0.00 in0.0 mm
05:25 PM 99.1°F37.3°C 65.9°F18.8°C 34% 3.3 mph S5.3 kmh S 4.9 mph7.9 kmh 29.18 in988.1 mb 0.00 in0.0 mm 0.00 in0.0 mm 0.00 in0.0 mm
05:30 PM 99.1°F37.3°C 65.9°F18.8°C 34% 3.0 mph SE4.8 kmh SE 4.9 mph7.9 kmh 29.18 in988.1 mb 0.00 in0.0 mm 0.00 in0.0 mm 0.00 in0.0 mm
05:35 PM 99.1°F37.3°C 65.7°F18.7°C 34% 1.1 mph SE1.8 kmh SE 4.9 mph7.9 kmh 29.18 in988.1 mb 0.00 in0.0 mm 0.00 in0.0 mm 0.00 in0.0 mm
05:40 PM 99.5°F37.5°C 65.7°F18.7°C 34% 1.8 mph SE2.9 kmh SE 4.9 mph7.9 kmh 29.18 in988.1 mb 0.00 in0.0 mm 0.00 in0.0 mm 0.00 in0.0 mm
05:45 PM 101.0°F38.3°C 67.8°F19.9°C 34% 1.2 mph S1.9 kmh S 4.9 mph7.9 kmh 29.17 in987.8 mb 0.00 in0.0 mm 0.00 in0.0 mm 0.00 in0.0 mm
05:50 PM 100.9°F38.3°C 67.9°F19.9°C 35% 2.1 mph SE3.4 kmh SE 7.4 mph11.9 kmh 29.17 in987.8 mb 0.00 in0.0 mm 0.00 in0.0 mm 0.00 in0.0 mm
05:55 PM 100.9°F38.3°C 69.1°F20.6°C 36% 1.7 mph E2.7 kmh E 7.4 mph11.9 kmh 29.17 in987.8 mb 0.00 in0.0 mm 0.00 in0.0 mm 0.00 in0.0 mm
06:00 PM 100.2°F37.9°C 70.7°F21.5°C 39% 4.1 mph NE6.6 kmh NE 9.8 mph15.8 kmh 29.17 in987.8 mb 0.00 in0.0 mm 0.00 in0.0 mm 0.00 in0.0 mm
06:05 PM 98.2°F36.8°C 71.4°F21.9°C 42% 5.4 mph E8.7 kmh E 9.8 mph15.8 kmh 29.17 in987.8 mb 0.00 in0.0 mm 0.00 in0.0 mm 0.00 in0.0 mm
06:10 PM 98.1°F36.7°C 72.1°F22.3°C 44% 4.7 mph ESE7.6 kmh ESE 9.8 mph15.8 kmh 29.17 in987.8 mb 0.00 in0.0 mm 0.00 in0.0 mm 0.00 in0.0 mm
06:15 PM 97.8°F36.6°C 73.5°F23.1°C 46% 5.8 mph ESE9.3 kmh ESE 9.8 mph15.8 kmh 29.17 in987.8 mb 0.00 in0.0 mm 0.00 in0.0 mm 0.00 in0.0 mm
06:20 PM 97.4°F36.3°C 73.4°F23.0°C 46% 4.7 mph E7.6 kmh E 9.8 mph15.8 kmh 29.17 in987.8 mb 0.00 in0.0 mm 0.00 in0.0 mm 0.00 in0.0 mm
06:25 PM 95.4°F35.2°C 72.5°F22.5°C 48% 6.4 mph E10.3 kmh E 12.3 mph19.8 kmh 29.17 in987.8 mb 0.00 in0.0 mm 0.00 in0.0 mm 0.00 in0.0 mm
06:30 PM 95.5°F35.3°C 71.7°F22.1°C 46% 7.8 mph SE12.6 kmh SE 15.0 mph24.1 kmh 29.17 in987.8 mb 0.00 in0.0 mm 0.00 in0.0 mm 0.00 in0.0 mm
06:35 PM 95.5°F35.3°C 71.5°F21.9°C 46% 6.7 mph SE10.8 kmh SE 15.0 mph24.1 kmh 29.17 in987.8 mb 0.00 in0.0 mm 0.00 in0.0 mm 0.00 in0.0 mm
06:40 PM 95.7°F35.4°C 72.2°F22.3°C 47% 3.0 mph ESE4.8 kmh ESE 4.9 mph7.9 kmh 29.17 in987.8 mb 0.00 in0.0 mm 0.00 in0.0 mm 0.00 in0.0 mm
06:45 PM 96.1°F35.6°C 71.9°F22.2°C 46% 7.0 mph E11.3 kmh E 9.8 mph15.8 kmh 29.17 in987.8 mb 0.00 in0.0 mm 0.00 in0.0 mm 0.00 in0.0 mm
06:50 PM 96.1°F35.6°C 72.1°F22.3°C 46% 6.1 mph E9.8 kmh E 12.3 mph19.8 kmh 29.17 in987.8 mb 0.00 in0.0 mm 0.00 in0.0 mm 0.00 in0.0 mm
06:55 PM 96.0°F35.6°C 72.0°F22.2°C 46% 3.9 mph ESE6.3 kmh ESE 9.8 mph15.8 kmh 29.18 in988.1 mb 0.00 in0.0 mm 0.00 in0.0 mm 0.00 in0.0 mm
07:00 PM 95.8°F35.4°C 72.5°F22.5°C 47% 7.6 mph E12.2 kmh E 12.3 mph19.8 kmh 29.18 in988.1 mb 0.00 in0.0 mm 0.00 in0.0 mm 0.00 in0.0 mm
07:05 PM 95.0°F35.0°C 72.4°F22.4°C 48% 6.2 mph SE10.0 kmh SE 12.3 mph19.8 kmh 29.18 in988.1 mb 0.00 in0.0 mm 0.00 in0.0 mm 0.00 in0.0 mm
07:10 PM 94.8°F34.9°C 73.1°F22.8°C 50% 6.9 mph E11.1 kmh E 12.3 mph19.8 kmh 29.18 in988.1 mb 0.00 in0.0 mm 0.00 in0.0 mm 0.00 in0.0 mm
07:15 PM 94.8°F34.9°C 73.4°F23.0°C 50% 4.3 mph SE6.9 kmh SE 9.8 mph15.8 kmh 29.18 in988.1 mb 0.00 in0.0 mm 0.00 in0.0 mm 0.00 in0.0 mm
07:20 PM 94.8°F34.9°C 73.3°F22.9°C 50% 3.1 mph SE5.0 kmh SE 7.4 mph11.9 kmh 29.18 in988.1 mb 0.00 in0.0 mm 0.00 in0.0 mm 0.00 in0.0 mm
07:25 PM 94.7°F34.8°C 73.1°F22.8°C 50% 5.0 mph SE8.0 kmh SE 7.4 mph11.9 kmh 29.18 in988.1 mb 0.00 in0.0 mm 0.00 in0.0 mm 0.00 in0.0 mm
07:30 PM 94.6°F34.8°C 73.0°F22.8°C 50% 6.1 mph SE9.8 kmh SE 9.8 mph15.8 kmh 29.18 in988.1 mb 0.00 in0.0 mm 0.00 in0.0 mm 0.00 in0.0 mm
07:35 PM 94.5°F34.7°C 73.1°F22.8°C 50% 4.8 mph SE7.7 kmh SE 9.8 mph15.8 kmh 29.19 in988.5 mb 0.00 in0.0 mm 0.00 in0.0 mm 0.00 in0.0 mm
07:40 PM 94.4°F34.7°C 72.9°F22.7°C 50% 6.6 mph ESE10.6 kmh ESE 9.8 mph15.8 kmh 29.19 in988.5 mb 0.00 in0.0 mm 0.00 in0.0 mm 0.00 in0.0 mm
07:45 PM 93.4°F34.1°C 72.4°F22.4°C 51% 7.0 mph SE11.3 kmh SE 12.3 mph19.8 kmh 29.18 in988.1 mb 0.00 in0.0 mm 0.00 in0.0 mm 0.00 in0.0 mm
07:50 PM 93.4°F34.1°C 73.4°F23.0°C 52% 6.0 mph SE9.7 kmh SE 9.8 mph15.8 kmh 29.19 in988.5 mb 0.00 in0.0 mm 0.00 in0.0 mm 0.00 in0.0 mm
07:55 PM 93.3°F34.1°C 73.6°F23.1°C 53% 7.4 mph SE11.9 kmh SE 15.0 mph24.1 kmh 29.19 in988.5 mb 0.00 in0.0 mm 0.00 in0.0 mm 0.00 in0.0 mm
08:00 PM 93.1°F33.9°C 73.4°F23.0°C 53% 5.0 mph SSE8.0 kmh SSE 9.8 mph15.8 kmh 29.19 in988.5 mb 0.00 in0.0 mm 0.00 in0.0 mm 0.00 in0.0 mm
08:05 PM 92.5°F33.6°C 73.4°F23.0°C 54% 4.9 mph E7.9 kmh E 15.0 mph24.1 kmh 29.19 in988.5 mb 0.00 in0.0 mm 0.00 in0.0 mm 0.00 in0.0 mm
08:10 PM 92.3°F33.5°C 73.2°F22.9°C 54% 5.9 mph SE9.5 kmh SE 9.8 mph15.8 kmh 29.20 in988.8 mb 0.00 in0.0 mm 0.00 in0.0 mm 0.00 in0.0 mm
08:15 PM 92.3°F33.5°C 73.2°F22.9°C 54% 6.6 mph SE10.6 kmh SE 15.0 mph24.1 kmh 29.20 in988.8 mb 0.00 in0.0 mm 0.00 in0.0 mm 0.00 in0.0 mm
08:20 PM 92.2°F33.4°C 73.6°F23.1°C 55% 4.8 mph SE7.7 kmh SE 9.8 mph15.8 kmh 29.20 in988.8 mb 0.00 in0.0 mm 0.00 in0.0 mm 0.00 in0.0 mm
08:25 PM 91.4°F33.0°C 72.9°F22.7°C 55% 5.7 mph SE9.2 kmh SE 9.8 mph15.8 kmh 29.20 in988.8 mb 0.00 in0.0 mm 0.00 in0.0 mm 0.00 in0.0 mm
08:30 PM 91.4°F33.0°C 72.9°F22.7°C 55% 4.6 mph ESE7.4 kmh ESE 9.8 mph15.8 kmh 29.20 in988.8 mb 0.00 in0.0 mm 0.00 in0.0 mm 0.00 in0.0 mm
08:35 PM 91.3°F32.9°C 72.9°F22.7°C 55% 4.7 mph SE7.6 kmh SE 7.4 mph11.9 kmh 29.20 in988.8 mb 0.00 in0.0 mm 0.00 in0.0 mm 0.00 in0.0 mm
08:40 PM 91.2°F32.9°C 73.3°F22.9°C 56% 6.2 mph SE10.0 kmh SE 15.0 mph24.1 kmh 29.20 in988.8 mb 0.00 in0.0 mm 0.00 in0.0 mm 0.00 in0.0 mm
08:45 PM 91.0°F32.8°C 73.0°F22.8°C 56% 5.5 mph E8.9 kmh E 9.8 mph15.8 kmh 29.21 in989.2 mb 0.00 in0.0 mm 0.00 in0.0 mm 0.00 in0.0 mm
08:50 PM 90.9°F32.7°C 73.0°F22.8°C 56% 7.7 mph ESE12.4 kmh ESE 17.4 mph28.0 kmh 29.20 in988.8 mb 0.00 in0.0 mm 0.00 in0.0 mm 0.00 in0.0 mm
08:55 PM 90.9°F32.7°C 73.1°F22.8°C 56% 5.4 mph ESE8.7 kmh ESE 9.8 mph15.8 kmh 29.21 in989.2 mb 0.00 in0.0 mm 0.00 in0.0 mm 0.00 in0.0 mm
09:00 PM 90.7°F32.6°C 73.3°F22.9°C 57% 3.8 mph SE6.1 kmh SE 7.4 mph11.9 kmh 29.21 in989.2 mb 0.00 in0.0 mm 0.00 in0.0 mm 0.00 in0.0 mm
09:05 PM 90.3°F32.4°C 72.9°F22.7°C 57% 5.3 mph SE8.5 kmh SE 9.8 mph15.8 kmh 29.22 in989.5 mb 0.00 in0.0 mm 0.00 in0.0 mm 0.00 in0.0 mm
09:10 PM 90.0°F32.2°C 72.7°F22.6°C 57% 6.6 mph ESE10.6 kmh ESE 15.0 mph24.1 kmh 29.23 in989.8 mb 0.00 in0.0 mm 0.00 in0.0 mm 0.00 in0.0 mm
09:15 PM 90.0°F32.2°C 72.7°F22.6°C 57% 4.8 mph SE7.7 kmh SE 7.4 mph11.9 kmh 29.22 in989.5 mb 0.00 in0.0 mm 0.00 in0.0 mm 0.00 in0.0 mm
09:20 PM 90.0°F32.2°C 72.7°F22.6°C 57% 7.3 mph SE11.7 kmh SE 12.3 mph19.8 kmh 29.22 in989.5 mb 0.00 in0.0 mm 0.00 in0.0 mm 0.00 in0.0 mm
09:25 PM 89.6°F32.0°C 72.7°F22.6°C 58% 7.6 mph SE12.2 kmh SE 12.3 mph19.8 kmh 29.23 in989.8 mb 0.00 in0.0 mm 0.00 in0.0 mm 0.00 in0.0 mm
09:30 PM 89.4°F31.9°C 72.6°F22.6°C 58% 6.4 mph SE10.3 kmh SE 12.3 mph19.8 kmh 29.23 in989.8 mb 0.00 in0.0 mm 0.00 in0.0 mm 0.00 in0.0 mm
09:35 PM 89.4°F31.9°C 72.6°F22.6°C 58% 4.1 mph ESE6.6 kmh ESE 9.8 mph15.8 kmh 29.23 in989.8 mb 0.00 in0.0 mm 0.00 in0.0 mm 0.00 in0.0 mm
09:40 PM 89.4°F31.9°C 72.6°F22.6°C 58% 6.0 mph SE9.7 kmh SE 9.8 mph15.8 kmh 29.23 in989.8 mb 0.00 in0.0 mm 0.00 in0.0 mm 0.00 in0.0 mm
09:45 PM 89.1°F31.7°C 72.5°F22.5°C 58% 7.5 mph ESE12.1 kmh ESE 12.3 mph19.8 kmh 29.23 in989.8 mb 0.00 in0.0 mm 0.00 in0.0 mm 0.00 in0.0 mm
09:50 PM 88.9°F31.6°C 72.6°F22.6°C 59% 7.4 mph SSE11.9 kmh SSE 15.0 mph24.1 kmh 29.23 in989.8 mb 0.00 in0.0 mm 0.00 in0.0 mm 0.00 in0.0 mm
09:55 PM 88.9°F31.6°C 72.7°F22.6°C 59% 7.0 mph S11.3 kmh S 17.4 mph28.0 kmh 29.23 in989.8 mb 0.00 in0.0 mm 0.00 in0.0 mm 0.00 in0.0 mm
10:00 PM 88.8°F31.6°C 72.6°F22.6°C 59% 6.1 mph SE9.8 kmh SE 9.8 mph15.8 kmh 29.25 in990.5 mb 0.00 in0.0 mm 0.00 in0.0 mm 0.00 in0.0 mm
10:05 PM 88.5°F31.4°C 72.3°F22.4°C 59% 6.7 mph SE10.8 kmh SE 9.8 mph15.8 kmh 29.25 in990.5 mb 0.00 in0.0 mm 0.00 in0.0 mm 0.00 in0.0 mm
10:10 PM 88.3°F31.3°C 72.1°F22.3°C 59% 4.8 mph SE7.7 kmh SE 12.3 mph19.8 kmh 29.26 in990.9 mb 0.00 in0.0 mm 0.00 in0.0 mm 0.00 in0.0 mm
10:15 PM 88.3°F31.3°C 72.1°F22.3°C 59% 7.4 mph SSE11.9 kmh SSE 15.0 mph24.1 kmh 29.26 in990.9 mb 0.00 in0.0 mm 0.00 in0.0 mm 0.00 in0.0 mm
10:20 PM 88.3°F31.3°C 72.1°F22.3°C 59% 5.7 mph SE9.2 kmh SE 9.8 mph15.8 kmh 29.26 in990.9 mb 0.00 in0.0 mm 0.00 in0.0 mm 0.00 in0.0 mm
10:25 PM 88.1°F31.2°C 71.9°F22.2°C 59% 5.0 mph SE8.0 kmh SE 12.3 mph19.8 kmh 29.26 in990.9 mb 0.00 in0.0 mm 0.00 in0.0 mm 0.00 in0.0 mm
10:30 PM 87.7°F30.9°C 71.8°F22.1°C 59% 4.9 mph SE7.9 kmh SE 9.8 mph15.8 kmh 29.27 in991.2 mb 0.00 in0.0 mm 0.00 in0.0 mm 0.00 in0.0 mm
10:35 PM 87.6°F30.9°C 72.0°F22.2°C 60% 6.8 mph SE10.9 kmh SE 12.3 mph19.8 kmh 29.27 in991.2 mb 0.00 in0.0 mm 0.00 in0.0 mm 0.00 in0.0 mm
10:40 PM 87.6°F30.9°C 72.0°F22.2°C 60% 5.2 mph SE8.4 kmh SE 9.8 mph15.8 kmh 29.27 in991.2 mb 0.00 in0.0 mm 0.00 in0.0 mm 0.00 in0.0 mm
10:45 PM 87.5°F30.8°C 72.0°F22.2°C 60% 5.1 mph SSE8.2 kmh SSE 9.8 mph15.8 kmh 29.27 in991.2 mb 0.00 in0.0 mm 0.00 in0.0 mm 0.00 in0.0 mm
10:50 PM 87.3°F30.7°C 72.2°F22.3°C 61% 4.8 mph SSE7.7 kmh SSE 7.4 mph11.9 kmh 29.27 in991.2 mb 0.00 in0.0 mm 0.00 in0.0 mm 0.00 in0.0 mm
10:55 PM 87.3°F30.7°C 72.2°F22.3°C 61% 4.8 mph SSE7.7 kmh SSE 9.8 mph15.8 kmh 29.28 in991.5 mb 0.00 in0.0 mm 0.00 in0.0 mm 0.00 in0.0 mm
11:00 PM 87.3°F30.7°C 72.2°F22.3°C 61% 5.1 mph SSE8.2 kmh SSE 9.8 mph15.8 kmh 29.28 in991.5 mb 0.00 in0.0 mm 0.00 in0.0 mm 0.00 in0.0 mm
11:05 PM 87.2°F30.7°C 72.0°F22.2°C 61% 6.1 mph SE9.8 kmh SE 15.0 mph24.1 kmh 29.28 in991.5 mb 0.00 in0.0 mm 0.00 in0.0 mm 0.00 in0.0 mm
11:10 PM 86.9°F30.5°C 71.8°F22.1°C 61% 4.5 mph SE7.2 kmh SE 7.4 mph11.9 kmh 29.27 in991.2 mb 0.00 in0.0 mm 0.00 in0.0 mm 0.00 in0.0 mm
11:15 PM 86.7°F30.4°C 71.6°F22.0°C 61% 4.9 mph SSE7.9 kmh SSE 9.8 mph15.8 kmh 29.28 in991.5 mb 0.00 in0.0 mm 0.00 in0.0 mm 0.00 in0.0 mm
11:20 PM 86.7°F30.4°C 72.1°F22.3°C 62% 5.6 mph SSE9.0 kmh SSE 9.8 mph15.8 kmh 29.28 in991.5 mb 0.00 in0.0 mm 0.00 in0.0 mm 0.00 in0.0 mm
11:25 PM 86.6°F30.3°C 72.0°F22.2°C 62% 6.0 mph SE9.7 kmh SE 12.3 mph19.8 kmh 29.29 in991.9 mb 0.00 in0.0 mm 0.00 in0.0 mm 0.00 in0.0 mm
11:30 PM 86.2°F30.1°C 71.7°F22.1°C 62% 4.5 mph SSE7.2 kmh SSE 7.4 mph11.9 kmh 29.29 in991.9 mb 0.00 in0.0 mm 0.00 in0.0 mm 0.00 in0.0 mm
11:35 PM 86.2°F30.1°C 72.1°F22.3°C 63% 3.2 mph S5.1 kmh S 7.4 mph11.9 kmh 29.29 in991.9 mb 0.00 in0.0 mm 0.00 in0.0 mm 0.00 in0.0 mm
11:40 PM 86.2°F30.1°C 72.1°F22.3°C 63% 4.5 mph SSE7.2 kmh SSE 7.4 mph11.9 kmh 29.30 in992.2 mb 0.00 in0.0 mm 0.00 in0.0 mm 0.00 in0.0 mm
11:45 PM 86.2°F30.1°C 72.1°F22.3°C 63% 2.6 mph SSE4.2 kmh SSE 4.9 mph7.9 kmh 29.30 in992.2 mb 0.00 in0.0 mm 0.00 in0.0 mm 0.00 in0.0 mm
11:50 PM 86.1°F30.1°C 72.0°F22.2°C 63% 4.4 mph SSE7.1 kmh SSE 9.8 mph15.8 kmh 29.30 in992.2 mb 0.00 in0.0 mm 0.00 in0.0 mm 0.00 in0.0 mm
11:55 PM 86.0°F30.0°C 71.9°F22.2°C 63% 5.6 mph SSE9.0 kmh SSE 12.3 mph19.8 kmh 29.30 in992.2 mb 0.00 in0.0 mm 0.00 in0.0 mm 0.00 in0.0 mm